createdAt,value
2022-10-13T00:00:49.812Z,10.93
2022-10-13T00:03:18.582Z,11.57
2022-10-13T00:05:48.057Z,11.10
2022-10-13T00:08:19.737Z,11.23
2022-10-13T00:10:49.614Z,10.88
2022-10-13T00:13:21.560Z,10.38
2022-10-13T00:15:50.156Z,11.45
2022-10-13T00:18:18.632Z,10.68
2022-10-13T00:20:48.127Z,13.32
2022-10-13T00:23:18.417Z,11.32
2022-10-13T00:25:48.131Z,11.65
2022-10-13T00:28:16.765Z,11.13
2022-10-13T00:30:45.250Z,11.57
2022-10-13T00:33:14.212Z,11.43
2022-10-13T00:35:43.303Z,12.25
2022-10-13T00:38:12.680Z,11.43
2022-10-13T00:40:49.211Z,11.38
2022-10-13T00:43:21.422Z,11.80
2022-10-13T00:45:50.977Z,11.45
2022-10-13T00:48:20.867Z,11.40
2022-10-13T00:50:50.187Z,11.85
2022-10-13T00:53:20.259Z,12.00
2022-10-13T00:55:50.293Z,10.80
2022-10-13T00:58:20.322Z,11.27
2022-10-13T01:00:50.299Z,11.60
2022-10-13T01:03:18.909Z,11.27
2022-10-13T01:05:47.430Z,11.77
2022-10-13T01:08:16.710Z,11.50
2022-10-13T01:10:48.989Z,11.40
2022-10-13T01:13:22.244Z,11.32
2022-10-13T01:15:53.878Z,10.50
2022-10-13T01:18:24.145Z,11.82
2022-10-13T01:20:57.758Z,11.07
2022-10-13T01:23:34.129Z,10.82
2022-10-13T01:26:18.219Z,11.52
2022-10-13T01:29:01.558Z,11.15
2022-10-13T01:31:35.591Z,10.35
2022-10-13T01:34:08.090Z,11.75
2022-10-13T01:36:40.227Z,11.18
2022-10-13T01:39:15.693Z,11.02
2022-10-13T01:41:47.278Z,11.30
2022-10-13T01:44:17.275Z,11.88
2022-10-13T01:46:56.094Z,12.35
2022-10-13T01:49:26.481Z,11.68
2022-10-13T01:51:56.147Z,12.63
2022-10-13T01:54:24.478Z,12.15
2022-10-13T01:56:56.049Z,11.23
2022-10-13T01:59:25.896Z,12.10
2022-10-13T02:01:58.944Z,12.00
2022-10-13T02:04:30.445Z,11.82
2022-10-13T02:07:01.988Z,12.05
2022-10-13T02:09:35.153Z,12.00
2022-10-13T02:12:06.061Z,12.18
2022-10-13T02:14:36.464Z,12.63
2022-10-13T02:17:07.020Z,12.93
2022-10-13T02:19:37.387Z,11.90
2022-10-13T02:22:06.576Z,13.77
2022-10-13T02:24:35.989Z,13.15
2022-10-13T02:27:06.854Z,12.73
2022-10-13T02:29:35.165Z,12.15
2022-10-13T02:32:03.599Z,12.05
2022-10-13T02:34:33.267Z,12.70
2022-10-13T02:37:01.565Z,12.80
2022-10-13T02:39:29.862Z,12.18
2022-10-13T02:41:58.703Z,12.60
2022-10-13T02:44:27.066Z,12.55
2022-10-13T02:46:55.392Z,12.48
2022-10-13T02:49:23.684Z,12.30
2022-10-13T02:51:54.231Z,11.10
2022-10-13T02:54:22.541Z,11.13
2022-10-13T02:56:50.864Z,11.10
2022-10-13T02:59:19.245Z,11.95
2022-10-13T03:01:47.541Z,11.73
2022-10-13T03:04:15.890Z,11.75
2022-10-13T03:06:44.444Z,11.23
2022-10-13T03:09:16.507Z,11.60
2022-10-13T03:11:45.273Z,11.50
2022-10-13T03:14:13.592Z,11.95
2022-10-13T03:16:42.006Z,11.60
2022-10-13T03:19:11.651Z,12.50
2022-10-13T03:21:40.031Z,11.52
2022-10-13T03:24:08.512Z,12.07
2022-10-13T03:26:38.174Z,12.00
2022-10-13T03:29:06.527Z,11.98
2022-10-13T03:31:35.381Z,13.93
2022-10-13T03:34:04.009Z,14.15
2022-10-13T03:36:32.318Z,13.60
2022-10-13T03:39:00.607Z,13.05
2022-10-13T03:41:28.951Z,13.80
2022-10-13T03:43:58.629Z,15.10
2022-10-13T03:46:29.158Z,13.93
2022-10-13T03:48:59.517Z,13.50
2022-10-13T03:51:27.978Z,13.13
2022-10-13T03:53:56.275Z,14.60
2022-10-13T03:56:25.967Z,14.48
2022-10-13T03:58:55.337Z,15.48
2022-10-13T04:01:25.923Z,13.23
2022-10-13T04:03:55.471Z,14.02
2022-10-13T04:06:24.159Z,14.02
2022-10-13T04:08:52.558Z,13.82
2022-10-13T04:11:21.420Z,13.80
2022-10-13T04:13:53.173Z,13.65
2022-10-13T04:16:23.429Z,13.52
2022-10-13T04:18:55.221Z,12.55
2022-10-13T04:21:24.168Z,14.00
2022-10-13T04:23:52.523Z,13.30
2022-10-13T04:26:21.907Z,13.05
2022-10-13T04:28:50.805Z,13.98
2022-10-13T04:31:21.897Z,12.40
2022-10-13T04:33:50.648Z,12.95
2022-10-13T04:36:20.957Z,12.85
2022-10-13T04:38:51.729Z,13.07
2022-10-13T04:41:20.525Z,13.68
2022-10-13T04:43:49.707Z,12.13
2022-10-13T04:46:19.350Z,11.90
2022-10-13T04:48:48.008Z,11.57
2022-10-13T04:51:17.138Z,11.57
2022-10-13T04:53:47.115Z,11.02
2022-10-13T04:56:16.463Z,10.55
2022-10-13T04:58:45.603Z,11.20
2022-10-13T05:01:20.529Z,10.55
2022-10-13T05:03:52.405Z,10.63
2022-10-13T05:06:21.607Z,11.43
2022-10-13T05:08:52.542Z,11.27
2022-10-13T05:11:20.959Z,11.38
2022-10-13T05:13:49.310Z,11.43
2022-10-13T05:16:18.563Z,11.38
2022-10-13T05:18:47.331Z,10.73
2022-10-13T05:21:16.466Z,12.85
2022-10-13T05:23:45.275Z,12.10
2022-10-13T05:26:15.815Z,12.07
2022-10-13T05:28:44.447Z,12.52
2022-10-13T05:31:13.373Z,11.73
2022-10-13T05:33:42.121Z,12.07
2022-10-13T05:36:12.300Z,12.25
2022-10-13T05:38:40.721Z,12.48
2022-10-13T05:41:09.695Z,12.50
2022-10-13T05:43:40.046Z,12.30
2022-10-13T05:46:08.790Z,11.52
2022-10-13T05:48:38.068Z,11.85
2022-10-13T05:51:08.088Z,11.68
2022-10-13T05:53:39.232Z,13.20
2022-10-13T05:56:10.343Z,13.18
2022-10-13T05:58:43.627Z,12.48
2022-10-13T06:01:13.475Z,13.95
2022-10-13T06:03:42.960Z,14.68
2022-10-13T06:06:11.335Z,14.13
2022-10-13T06:08:39.915Z,14.02
2022-10-13T06:11:08.887Z,13.02
2022-10-13T06:13:37.204Z,12.57
2022-10-13T06:16:07.309Z,14.57
2022-10-13T06:18:35.677Z,13.73
2022-10-13T06:21:04.214Z,13.90
2022-10-13T06:23:32.523Z,13.45
2022-10-13T06:26:00.975Z,14.38
2022-10-13T06:28:31.308Z,12.93
2022-10-13T06:30:59.860Z,13.38
2022-10-13T06:33:29.549Z,13.75
2022-10-13T06:35:57.836Z,13.43
2022-10-13T06:38:26.228Z,13.75
2022-10-13T06:40:54.551Z,13.25
2022-10-13T06:43:30.967Z,12.20
2022-10-13T06:46:04.522Z,13.23
2022-10-13T06:48:34.201Z,12.73
2022-10-13T06:51:03.059Z,13.93
2022-10-13T06:53:31.392Z,13.35
2022-10-13T06:56:00.133Z,12.68
2022-10-13T06:58:28.539Z,12.88
2022-10-13T07:00:57.426Z,13.43
2022-10-13T07:03:26.033Z,11.60
2022-10-13T07:05:56.116Z,12.40
2022-10-13T07:08:24.674Z,13.13
2022-10-13T07:10:52.984Z,13.45
2022-10-13T07:15:50.543Z,13.32
2022-10-13T07:18:18.922Z,13.63
2022-10-13T07:20:47.240Z,13.23
2022-10-13T07:23:16.895Z,14.15
2022-10-13T07:25:45.514Z,14.68
2022-10-13T07:28:13.927Z,15.30
2022-10-13T07:30:42.321Z,12.63
2022-10-13T07:33:10.616Z,13.82
2022-10-13T07:35:39.741Z,12.70
2022-10-13T07:38:08.500Z,12.23
2022-10-13T07:40:38.140Z,12.95
2022-10-13T07:43:06.469Z,12.88
2022-10-13T07:45:34.850Z,12.90
2022-10-13T07:48:03.255Z,13.80
2022-10-13T07:50:31.655Z,13.10
2022-10-13T07:53:00.004Z,13.95
2022-10-13T07:55:28.387Z,13.52
2022-10-13T07:57:58.125Z,14.15
2022-10-13T08:00:26.499Z,15.10
2022-10-13T08:02:54.971Z,13.50
2022-10-13T08:05:23.376Z,13.85
2022-10-13T08:07:54.706Z,15.32
2022-10-13T08:10:26.589Z,13.38
2022-10-13T08:12:55.036Z,13.50
2022-10-13T08:15:24.744Z,14.77
2022-10-13T08:17:53.095Z,14.50
2022-10-13T08:20:21.535Z,16.73
2022-10-13T08:22:49.960Z,14.13
2022-10-13T08:25:18.340Z,13.75
2022-10-13T08:27:51.572Z,14.32
2022-10-13T08:30:21.024Z,14.93
2022-10-13T08:32:50.833Z,16.30
2022-10-13T08:35:19.220Z,13.77
2022-10-13T08:37:47.585Z,14.52
2022-10-13T08:40:18.316Z,14.65
2022-10-13T08:42:47.439Z,14.00
2022-10-13T08:45:40.416Z,14.75
2022-10-13T08:48:13.422Z,15.55
2022-10-13T08:50:44.037Z,14.43
2022-10-13T08:53:13.908Z,15.35
2022-10-13T08:55:49.532Z,14.77
2022-10-13T08:58:20.697Z,13.80
2022-10-13T09:00:49.114Z,16.20
2022-10-13T09:03:23.784Z,14.80
2022-10-13T09:05:59.740Z,14.57
2022-10-13T09:08:29.579Z,13.95
2022-10-13T09:10:59.610Z,13.57
2022-10-13T09:13:28.043Z,15.45
2022-10-13T09:15:56.422Z,14.48
2022-10-13T09:18:31.790Z,16.08
2022-10-13T09:21:17.548Z,14.55
2022-10-13T09:23:45.907Z,15.18
2022-10-13T09:26:18.342Z,14.98
2022-10-13T09:28:47.912Z,15.15
2022-10-13T09:31:18.046Z,14.32
2022-10-13T09:33:58.256Z,15.43
2022-10-13T09:36:27.874Z,15.18
2022-10-13T09:39:11.622Z,16.40
2022-10-13T09:41:41.672Z,16.33
2022-10-13T09:44:12.750Z,16.73
2022-10-13T09:46:47.734Z,16.90
2022-10-13T09:49:31.916Z,15.25
2022-10-13T09:52:02.744Z,15.38
2022-10-13T09:54:38.534Z,15.68
2022-10-13T09:57:11.099Z,16.85
2022-10-13T09:59:41.514Z,16.27
2022-10-13T10:02:19.488Z,15.82
2022-10-13T10:04:51.594Z,15.75
2022-10-13T10:07:22.290Z,17.13
2022-10-13T10:09:53.152Z,15.82
2022-10-13T10:12:27.679Z,15.55
2022-10-13T10:14:56.237Z,16.33
2022-10-13T10:17:27.958Z,16.55
2022-10-13T10:20:08.127Z,15.93
2022-10-13T10:22:39.261Z,14.80
2022-10-13T10:25:16.157Z,15.68
2022-10-13T10:27:47.306Z,16.13
2022-10-13T10:30:17.035Z,16.40
2022-10-13T10:32:48.956Z,16.98
2022-10-13T10:35:23.807Z,16.48
2022-10-13T10:37:58.841Z,15.90
2022-10-13T10:40:34.098Z,15.23
2022-10-13T10:43:09.401Z,16.08
2022-10-13T10:45:39.202Z,14.80
2022-10-13T10:48:09.513Z,15.60
2022-10-13T10:50:39.263Z,15.23
2022-10-13T10:53:08.803Z,15.32
2022-10-13T10:55:39.986Z,15.57
2022-10-13T10:58:13.760Z,14.40
2022-10-13T11:00:47.150Z,16.05
2022-10-13T11:03:19.820Z,15.55
2022-10-13T11:06:02.937Z,15.38
2022-10-13T11:08:32.403Z,15.57
2022-10-13T11:11:24.722Z,15.07
2022-10-13T11:13:57.100Z,14.73
2022-10-13T11:16:30.160Z,14.65
2022-10-13T11:19:06.521Z,13.68
2022-10-13T11:21:53.394Z,14.02
2022-10-13T11:24:40.405Z,13.25
2022-10-13T11:27:27.709Z,13.60
2022-10-13T11:29:57.880Z,13.05
2022-10-13T11:32:55.122Z,12.48
2022-10-13T11:35:27.945Z,12.90
2022-10-13T11:38:12.648Z,13.38
2022-10-13T11:40:49.199Z,12.55
2022-10-13T11:43:28.029Z,12.85
2022-10-13T11:46:10.190Z,12.73
2022-10-13T11:48:53.821Z,12.93
2022-10-13T11:51:30.845Z,12.85
2022-10-13T11:54:02.148Z,11.98
2022-10-13T11:56:38.267Z,11.52
2022-10-13T11:59:19.903Z,11.23
2022-10-13T12:01:48.308Z,10.20
2022-10-13T12:04:17.099Z,9.95
2022-10-13T12:06:47.570Z,10.70
2022-10-13T12:09:19.092Z,9.85
2022-10-13T12:11:47.576Z,10.32
2022-10-13T12:14:24.013Z,8.98
2022-10-13T12:19:30.184Z,8.80
2022-10-13T12:21:59.392Z,9.05
2022-10-13T12:24:29.002Z,8.57
2022-10-13T12:26:57.854Z,8.80
2022-10-13T12:29:32.139Z,9.35
2022-10-13T12:32:01.904Z,9.10
2022-10-13T12:34:32.170Z,8.50
2022-10-13T12:37:02.267Z,8.88
2022-10-13T12:39:32.480Z,8.38
2022-10-13T12:42:02.597Z,8.25
2022-10-13T12:44:33.153Z,9.02
2022-10-13T12:47:03.624Z,8.18
2022-10-13T12:49:32.792Z,8.93
2022-10-13T12:52:06.823Z,8.65
2022-10-13T12:54:36.152Z,8.45
2022-10-13T12:57:06.485Z,8.40
2022-10-13T12:59:42.639Z,8.55
2022-10-13T13:02:21.307Z,7.97
2022-10-13T13:04:49.833Z,7.68
2022-10-13T13:07:28.988Z,8.07
2022-10-13T13:10:14.993Z,8.00
2022-10-13T13:12:43.689Z,7.53
2022-10-13T13:15:32.734Z,9.00
2022-10-13T13:18:20.703Z,7.57
2022-10-13T13:20:48.985Z,8.07
2022-10-13T13:23:19.212Z,10.20
2022-10-13T13:25:47.527Z,8.88
2022-10-13T13:28:16.828Z,8.50
2022-10-13T13:30:46.762Z,7.85
2022-10-13T13:33:15.107Z,8.70
2022-10-13T13:35:45.435Z,8.80
2022-10-13T13:38:13.788Z,7.95
2022-10-13T13:40:42.399Z,8.73
2022-10-13T13:43:14.192Z,8.75
2022-10-13T13:45:42.618Z,8.35
2022-10-13T13:48:13.824Z,9.50
2022-10-13T13:50:42.224Z,7.93
2022-10-13T13:53:10.835Z,9.25
2022-10-13T13:55:39.368Z,9.65
2022-10-13T13:58:08.404Z,9.20
2022-10-13T14:00:36.790Z,7.97
2022-10-13T14:03:05.509Z,9.60
2022-10-13T14:05:35.218Z,10.05
2022-10-13T14:08:03.593Z,10.05
2022-10-13T14:10:31.959Z,8.93
2022-10-13T14:13:00.343Z,9.88
2022-10-13T14:15:30.045Z,9.73
2022-10-13T14:17:58.692Z,9.98
2022-10-13T14:20:28.084Z,10.30
2022-10-13T14:22:57.814Z,9.27
2022-10-13T14:25:26.199Z,9.63
2022-10-13T14:27:54.566Z,10.45
2022-10-13T14:30:22.913Z,9.70
2022-10-13T14:32:51.277Z,10.07
2022-10-13T14:35:19.651Z,10.77
2022-10-13T14:37:48.004Z,10.48
2022-10-13T14:40:17.903Z,9.75
2022-10-13T14:42:46.301Z,10.57
2022-10-13T14:45:17.822Z,9.52
2022-10-13T14:47:46.178Z,10.38
2022-10-13T14:50:14.558Z,10.70
2022-10-13T14:52:43.245Z,10.05
2022-10-13T14:55:11.643Z,10.15
2022-10-13T14:57:41.675Z,10.70
2022-10-13T15:00:10.761Z,10.25
2022-10-13T15:02:39.158Z,9.73
2022-10-13T15:05:08.390Z,10.18
2022-10-13T15:07:40.821Z,10.35
2022-10-13T15:10:09.992Z,10.70
2022-10-13T15:12:38.571Z,9.93
2022-10-13T15:15:08.955Z,10.25
2022-10-13T15:17:37.902Z,11.07
2022-10-13T15:20:06.840Z,11.20
2022-10-13T15:22:35.229Z,10.25
2022-10-13T15:25:04.411Z,10.05
2022-10-13T15:27:32.841Z,10.27
2022-10-13T15:30:01.217Z,10.77
2022-10-13T15:32:30.954Z,10.95
2022-10-13T15:35:02.244Z,10.95
2022-10-13T15:37:31.568Z,11.25
2022-10-13T15:40:00.230Z,10.88
2022-10-13T15:42:28.683Z,13.05
2022-10-13T15:45:09.329Z,11.43
2022-10-13T15:47:40.422Z,13.20
2022-10-13T15:50:10.066Z,13.57
2022-10-13T15:52:41.525Z,12.45
2022-10-13T15:55:10.319Z,15.20
2022-10-13T15:57:38.976Z,13.00
2022-10-13T16:00:08.177Z,14.70
2022-10-13T16:02:45.122Z,12.98
2022-10-13T16:05:14.132Z,12.07
2022-10-13T16:07:42.874Z,12.55
2022-10-13T16:10:13.209Z,12.00
2022-10-13T16:12:45.436Z,13.10
2022-10-13T16:15:17.315Z,12.68
2022-10-13T16:17:47.204Z,13.82
2022-10-13T16:20:15.919Z,12.23
2022-10-13T16:22:44.280Z,13.23
2022-10-13T16:25:12.937Z,14.35
2022-10-13T16:27:44.216Z,14.45
2022-10-13T16:30:13.815Z,15.52
2022-10-13T16:32:42.302Z,14.57
2022-10-13T16:35:12.301Z,14.35
2022-10-13T16:37:40.671Z,14.20
2022-10-13T16:40:09.679Z,14.32
2022-10-13T16:42:38.157Z,15.35
2022-10-13T16:45:07.500Z,15.52
2022-10-13T16:47:36.078Z,16.50
2022-10-13T16:50:06.393Z,15.60
2022-10-13T16:52:36.386Z,16.90
2022-10-13T16:55:05.033Z,16.17
2022-10-13T16:57:33.524Z,16.38
2022-10-13T17:00:02.166Z,19.38
2022-10-13T17:02:32.721Z,15.77
2022-10-13T17:05:01.075Z,19.25
2022-10-13T17:07:29.505Z,17.10
2022-10-13T17:09:59.838Z,17.45
2022-10-13T17:12:28.230Z,16.05
2022-10-13T17:14:56.574Z,17.77
2022-10-13T17:17:24.928Z,16.25
2022-10-13T17:19:53.293Z,16.55
2022-10-13T17:22:21.755Z,16.50
2022-10-13T17:24:50.111Z,15.88
2022-10-13T17:27:20.139Z,17.42
2022-10-13T17:29:48.849Z,16.63
2022-10-13T17:32:17.205Z,18.42
2022-10-13T17:34:45.753Z,17.95
2022-10-13T17:37:14.991Z,16.80
2022-10-13T17:39:43.355Z,16.80
2022-10-13T17:42:11.726Z,16.48
2022-10-13T17:44:42.605Z,15.35
2022-10-13T17:47:12.912Z,15.70
2022-10-13T17:49:41.427Z,15.40
2022-10-13T17:52:11.722Z,16.58
2022-10-13T17:54:40.100Z,20.25
2022-10-13T17:57:08.511Z,16.85
2022-10-13T17:59:36.999Z,14.82
2022-10-13T18:02:06.776Z,15.48
2022-10-13T18:04:35.199Z,16.08
2022-10-13T18:07:03.585Z,17.52
2022-10-13T18:09:31.990Z,18.02
2022-10-13T18:12:00.398Z,18.33
2022-10-13T18:14:29.072Z,17.50
2022-10-13T18:16:57.552Z,19.20
2022-10-13T18:19:27.270Z,18.10
2022-10-13T18:21:55.673Z,18.23
2022-10-13T18:24:25.051Z,18.27
2022-10-13T18:26:54.566Z,21.02
2022-10-13T18:29:25.311Z,19.13
2022-10-13T18:31:56.111Z,19.98
2022-10-13T18:34:24.690Z,17.35
2022-10-13T18:36:55.858Z,18.70
2022-10-13T18:39:25.637Z,17.77
2022-10-13T18:41:54.500Z,19.30
2022-10-13T18:44:22.971Z,18.58
2022-10-13T18:46:52.017Z,19.08
2022-10-13T18:49:23.023Z,17.70
2022-10-13T18:51:51.789Z,18.75
2022-10-13T18:54:21.717Z,18.95
2022-10-13T18:56:50.299Z,18.17
2022-10-13T18:59:18.628Z,18.30
2022-10-13T19:01:47.492Z,20.10
2022-10-13T19:04:16.840Z,18.58
2022-10-13T19:06:46.314Z,19.23
2022-10-13T19:09:17.222Z,19.20
2022-10-13T19:11:47.356Z,19.55
2022-10-13T19:14:17.824Z,19.92
2022-10-13T19:16:46.416Z,19.73
2022-10-13T19:19:15.061Z,19.20
2022-10-13T19:21:43.763Z,18.75
2022-10-13T19:24:12.762Z,19.50
2022-10-13T19:26:41.150Z,20.20
2022-10-13T19:29:11.778Z,19.48
2022-10-13T19:31:41.368Z,20.63
2022-10-13T19:34:10.107Z,19.65
2022-10-13T19:36:39.828Z,19.75
2022-10-13T19:39:11.721Z,19.38
2022-10-13T19:41:40.393Z,19.25
2022-10-13T19:44:08.750Z,20.13
2022-10-13T19:46:41.620Z,18.60
2022-10-13T19:49:10.669Z,19.35
2022-10-13T19:51:43.591Z,18.65
2022-10-13T19:54:12.196Z,18.75
2022-10-13T19:56:46.464Z,17.27
2022-10-13T19:59:15.349Z,17.05
2022-10-13T20:01:45.055Z,16.55
2022-10-13T20:04:18.278Z,16.80
2022-10-13T20:06:46.799Z,16.23
2022-10-13T20:09:15.120Z,18.30
2022-10-13T20:11:45.381Z,16.10
2022-10-13T20:14:14.032Z,16.45
2022-10-13T20:16:42.350Z,17.30
2022-10-13T20:19:13.279Z,17.73
2022-10-13T20:21:43.272Z,16.55
2022-10-13T20:24:12.955Z,17.15
2022-10-13T20:26:41.630Z,15.80
2022-10-13T20:29:10.021Z,14.93
2022-10-13T20:31:38.372Z,15.82
2022-10-13T20:34:06.661Z,15.55
2022-10-13T20:36:39.049Z,15.07
2022-10-13T20:39:08.695Z,14.63
2022-10-13T20:41:37.417Z,14.93
2022-10-13T20:44:05.864Z,13.55
2022-10-13T20:46:34.903Z,13.38
2022-10-13T20:49:12.707Z,12.55
2022-10-13T20:51:43.642Z,13.82
2022-10-13T20:54:12.383Z,11.95
2022-10-13T20:56:40.718Z,13.07
2022-10-13T20:59:10.299Z,14.15
2022-10-13T21:01:39.012Z,11.85
2022-10-13T21:04:07.465Z,11.38
2022-10-13T21:06:35.994Z,10.98
2022-10-13T21:09:06.401Z,12.52
2022-10-13T21:11:34.778Z,11.57
2022-10-13T21:14:06.399Z,10.65
2022-10-13T21:16:34.755Z,10.70
2022-10-13T21:19:03.314Z,10.23
2022-10-13T21:21:32.427Z,10.43
2022-10-13T21:24:01.497Z,10.35
2022-10-13T21:26:31.608Z,9.70
2022-10-13T21:29:00.177Z,16.52
2022-10-13T21:31:29.401Z,11.85
2022-10-13T21:33:58.145Z,11.77
2022-10-13T21:36:27.947Z,12.88
2022-10-13T21:38:57.626Z,15.02
2022-10-13T21:41:26.842Z,14.65
2022-10-13T21:44:01.014Z,15.02
2022-10-13T21:46:35.022Z,10.25
2022-10-13T21:49:08.562Z,9.73
2022-10-13T21:51:40.413Z,9.73
2022-10-13T21:54:11.262Z,10.75
2022-10-13T21:56:42.688Z,10.00
2022-10-13T21:59:16.622Z,10.60
2022-10-13T22:01:45.732Z,10.80
2022-10-13T22:04:15.839Z,11.55
2022-10-13T22:06:44.208Z,12.57
2022-10-13T22:09:12.828Z,10.60
2022-10-13T22:11:43.816Z,10.07
2022-10-13T22:14:13.731Z,12.63
2022-10-13T22:16:43.033Z,12.77
2022-10-13T22:19:13.074Z,11.90
2022-10-13T22:21:42.562Z,11.63
2022-10-13T22:24:14.277Z,12.02
2022-10-13T22:26:43.625Z,11.93
2022-10-13T22:29:13.609Z,13.73
2022-10-13T22:31:43.400Z,13.07
2022-10-13T22:34:12.844Z,14.02
2022-10-13T22:36:47.850Z,13.40
2022-10-13T22:39:17.005Z,13.63
2022-10-13T22:41:49.765Z,12.60
2022-10-13T22:44:18.257Z,13.93
2022-10-13T22:46:48.168Z,12.75
2022-10-13T22:49:16.493Z,13.23
2022-10-13T22:51:45.061Z,12.95
2022-10-13T22:54:13.377Z,13.18
2022-10-13T22:56:42.418Z,12.68
2022-10-13T22:59:11.348Z,12.85
2022-10-13T23:01:39.783Z,12.90
2022-10-13T23:04:09.648Z,13.45
2022-10-13T23:07:03.256Z,14.02
2022-10-13T23:09:31.762Z,13.75
2022-10-13T23:12:00.238Z,13.95
2022-10-13T23:14:31.263Z,12.98
2022-10-13T23:16:59.903Z,14.32
2022-10-13T23:19:30.479Z,14.20
2022-10-13T23:21:59.831Z,14.65
2022-10-13T23:24:28.498Z,16.23
2022-10-13T23:27:00.704Z,15.63
2022-10-13T23:29:29.189Z,14.45
2022-10-13T23:31:57.747Z,13.70
2022-10-13T23:34:28.318Z,14.23
2022-10-13T23:36:58.650Z,14.07
2022-10-13T23:39:27.225Z,15.07
2022-10-13T23:41:55.902Z,13.68
2022-10-13T23:44:24.305Z,14.50
2022-10-13T23:46:52.748Z,15.18
2022-10-13T23:49:22.719Z,15.15
2022-10-13T23:51:51.229Z,15.10
2022-10-13T23:54:20.945Z,14.85
2022-10-13T23:56:49.256Z,14.43
2022-10-13T23:59:17.564Z,14.93
